Time;durP1;ratioP1;P1;durP2;ratioP2;P2;SDS_P1;SDS_P2;PMS_P1;PMS_P2;Temp;Humidity;BMP_temperature;BMP_pressure;BME280_temperature;BME280_humidity;BME280_pressure;Samples;Min_cycle;Max_cycle;Signal;HPM_P1;HPM_P2
2022/06/12 00:00:25;;;;;;;6.03;4.95;;;;;;;12.66;100.00;102256.94;5245403;28;20072;-63
2022/06/12 00:02:57;;;;;;;8.02;5.25;;;;;;;12.59;100.00;102275.22;5228450;28;20028;-62
2022/06/12 00:05:32;;;;;;;8.52;5.43;;;;;;;12.45;100.00;102280.00;5227928;28;20025;-63
2022/06/12 00:08:05;;;;;;;7.10;5.38;;;;;;;12.41;100.00;102275.31;5228377;28;20115;-63
2022/06/12 00:14:21;;;;;;;12.40;6.15;;;;;;;12.26;100.00;102272.22;5248142;28;20033;-60
2022/06/12 00:16:52;;;;;;;16.20;6.03;;;;;;;12.11;100.00;102261.84;5232660;28;20472;-62
2022/06/12 00:19:23;;;;;;;5.60;5.28;;;;;;;12.11;100.00;102275.38;5232679;28;20028;-61
2022/06/12 00:25:25;;;;;;;6.80;6.18;;;;;;;11.94;100.00;102269.78;5250321;28;20036;-62
2022/06/12 00:27:55;;;;;;;8.45;7.65;;;;;;;11.88;100.00;102261.75;5232470;28;20028;-61
2022/06/12 00:30:27;;;;;;;7.00;5.97;;;;;;;11.81;100.00;102261.88;5249151;28;20028;-61
2022/06/12 00:32:58;;;;;;;11.45;6.25;;;;;;;11.77;100.00;102260.66;5232461;28;20028;-61
2022/06/12 00:35:33;;;;;;;7.32;6.25;;;;;;;11.75;100.00;102262.75;5232341;28;20468;-62
2022/06/12 00:38:03;;;;;;;11.43;5.93;;;;;;;11.68;100.00;102262.00;5232263;28;20404;-62
2022/06/12 01:01:35;;;;;;;6.72;5.03;;;;;;;11.37;100.00;102266.56;5248876;28;20036;-62
2022/06/12 01:07:01;;;;;;;4.45;4.15;;;;;;;11.08;100.00;102240.28;5273572;28;20035;-83
2022/06/12 01:09:38;;;;;;;6.38;4.13;;;;;;;11.22;100.00;102265.31;5256656;28;20498;-82
2022/06/12 01:12:16;;;;;;;7.35;5.22;;;;;;;11.09;100.00;102247.34;5275634;28;20020;-83
2022/06/12 01:14:53;;;;;;;7.78;5.35;;;;;;;11.16;100.00;102264.31;5258523;28;20063;-83
2022/06/12 01:17:26;;;;;;;5.00;4.35;;;;;;;11.09;100.00;102256.28;5275379;28;20600;-83
2022/06/12 01:20:03;;;;;;;9.45;4.63;;;;;;;10.99;100.00;102247.03;5274435;28;20028;-82
2022/06/12 01:22:44;;;;;;;5.38;4.03;;;;;;;11.12;100.00;102266.66;5259065;28;20028;-83
2022/06/12 01:25:33;;;;;;;8.82;3.80;;;;;;;11.08;100.00;102265.44;5275489;28;20043;-84
2022/06/12 01:28:32;;;;;;;4.65;3.95;;;;;;;11.04;100.00;102266.94;5276661;28;20039;-83
2022/06/12 01:31:31;;;;;;;11.18;4.70;;;;;;;10.95;100.00;102254.78;5276513;28;20016;-83
2022/06/12 01:34:25;;;;;;;8.85;4.47;;;;;;;10.94;100.00;102258.53;5276993;28;20111;-83
2022/06/12 01:37:22;;;;;;;4.82;3.85;;;;;;;10.86;100.00;102258.81;5258588;28;20085;-84
2022/06/12 01:40:30;;;;;;;7.22;4.50;;;;;;;10.79;100.00;102255.34;5276352;28;20035;-83
2022/06/12 01:43:25;;;;;;;6.10;4.43;;;;;;;10.54;100.00;102232.97;5153859;28;20026;-84
2022/06/12 01:46:06;;;;;;;5.30;4.90;;;;;;;10.72;100.00;102247.31;5274792;28;20128;-84
2022/06/12 01:48:52;;;;;;;7.03;4.57;;;;;;;10.49;100.00;102215.53;5276494;28;20103;-84
2022/06/12 01:51:35;;;;;;;3.58;3.45;;;;;;;10.74;100.00;102260.59;5258148;28;20401;-84
2022/06/12 01:54:20;;;;;;;8.52;5.30;;;;;;;10.70;100.00;102257.50;5277056;28;20511;-82
2022/06/12 01:57:05;;;;;;;4.28;4.07;;;;;;;10.68;100.00;102259.59;5276234;28;20498;-84
2022/06/12 01:59:49;;;;;;;5.22;4.95;;;;;;;10.61;100.00;102247.22;5278109;28;20571;-84
2022/06/12 02:02:34;;;;;;;5.28;4.88;;;;;;;10.47;100.00;102233.84;5275628;28;20057;-84
2022/06/12 02:05:30;;;;;;;5.55;5.15;;;;;;;10.58;100.00;102267.41;5258538;28;20055;-81
2022/06/12 02:08:13;;;;;;;5.82;5.20;;;;;;;10.54;100.00;102259.97;5276839;28;20028;-82
2022/06/12 02:10:52;;;;;;;6.57;4.40;;;;;;;10.55;100.00;102262.44;5276112;28;20028;-83
2022/06/12 02:13:32;;;;;;;5.30;4.53;;;;;;;10.48;100.00;102257.09;5256404;28;20401;-84
2022/06/12 02:16:09;;;;;;;4.18;3.97;;;;;;;10.53;100.00;102267.25;5275648;28;20059;-83
2022/06/12 02:18:46;;;;;;;4.18;3.88;;;;;;;10.51;100.00;102263.94;5257821;28;20020;-83
2022/06/12 02:21:37;;;;;;;5.32;5.03;;;;;;;10.51;100.00;102268.50;5272738;28;20047;-84
2022/06/12 02:24:13;;;;;;;5.05;4.65;;;;;;;10.22;100.00;102224.09;5274536;28;20038;-84
2022/06/12 02:27:04;;;;;;;5.47;4.97;;;;;;;10.46;100.00;102266.47;5256309;28;20024;-82
2022/06/12 02:29:41;;;;;;;5.13;4.72;;;;;;;10.13;100.00;102216.22;5256860;28;20031;-83
2022/06/12 02:32:30;;;;;;;4.53;4.13;;;;;;;10.21;100.00;102222.44;5274581;28;20027;-83
2022/06/12 02:35:08;;;;;;;6.65;5.38;;;;;;;10.41;100.00;102260.91;5255527;28;20032;-83
2022/06/12 02:37:45;;;;;;;7.28;4.55;;;;;;;10.39;100.00;102246.81;5273441;28;20039;-83
2022/06/12 02:40:29;;;;;;;8.23;4.65;;;;;;;10.39;100.00;102241.41;5274279;28;20027;-83
2022/06/12 02:43:05;;;;;;;4.10;3.90;;;;;;;10.41;100.00;102250.91;5273068;28;20020;-82
2022/06/12 02:46:07;;;;;;;7.78;4.35;;;;;;;10.40;100.00;102248.44;5274933;28;20024;-83
2022/06/12 02:48:38;;;;;;;7.57;4.45;;;;;;;10.32;100.00;102244.16;5272546;28;20071;-83
2022/06/12 02:51:16;;;;;;;7.15;3.53;;;;;;;10.31;100.00;102257.88;5256389;28;20028;-83
2022/06/12 02:53:58;;;;;;;4.97;4.63;;;;;;;10.32;100.00;102248.75;5274003;28;20024;-83
2022/06/12 02:56:46;;;;;;;18.63;5.15;;;;;;;10.22;100.00;102227.63;5273700;28;20020;-83
2022/06/12 03:00:15;;;;;;;5.18;3.92;;;;;;;10.40;100.00;102254.66;5274163;28;20019;-83
2022/06/12 03:02:48;;;;;;;11.20;4.00;;;;;;;10.43;100.00;102248.81;5246144;28;20043;-83
2022/06/12 03:05:26;;;;;;;3.67;3.47;;;;;;;10.44;100.00;102249.66;5273213;28;20028;-82
2022/06/12 03:08:03;;;;;;;4.85;4.60;;;;;;;10.45;100.00;102251.31;5273333;28;20031;-83
2022/06/12 03:10:38;;;;;;;5.05;4.53;;;;;;;10.46;100.00;102256.50;5254850;28;20028;-83
2022/06/12 03:13:10;;;;;;;3.75;3.45;;;;;;;10.34;100.00;102238.53;5274017;28;20442;-83
2022/06/12 03:15:50;;;;;;;2.85;2.72;;;;;;;10.46;100.00;102256.50;5272766;28;20051;-80
2022/06/12 03:18:33;;;;;;;4.68;3.42;;;;;;;10.40;100.00;102251.97;5256636;28;20024;-83
2022/06/12 03:21:13;;;;;;;3.97;3.58;;;;;;;10.42;100.00;102263.38;5271727;28;20024;-83
2022/06/12 03:24:01;;;;;;;3.83;3.47;;;;;;;10.41;100.00;102258.19;5273295;28;20042;-82
2022/06/12 03:26:37;;;;;;;4.95;3.92;;;;;;;10.24;100.00;102235.50;5272036;28;20032;-84
2022/06/12 03:29:35;;;;;;;6.65;3.90;;;;;;;10.41;100.00;102255.50;5271549;28;20024;-80
2022/06/12 03:32:12;;;;;;;12.23;4.38;;;;;;;10.42;100.00;102257.97;5271146;28;20122;-83
2022/06/12 03:35:01;;;;;;;3.45;3.15;;;;;;;10.49;100.00;102264.16;5272815;28;20444;-83
2022/06/12 03:37:49;;;;;;;4.33;3.97;;;;;;;10.43;100.00;102248.00;5272898;28;20023;-81
2022/06/12 03:40:22;;;;;;;4.47;4.22;;;;;;;10.57;100.00;102263.06;5273181;28;20337;-83
2022/06/12 03:42:58;;;;;;;8.48;3.90;;;;;;;10.62;100.00;102265.94;5272929;28;20028;-82
2022/06/12 03:45:43;;;;;;;7.70;4.20;;;;;;;10.54;100.00;102244.59;5271968;28;20102;-83
2022/06/12 03:49:07;;;;;;;9.00;5.35;;;;;;;10.63;100.00;102258.66;5271426;28;20024;-83
2022/06/12 03:51:55;;;;;;;9.15;3.80;;;;;;;10.69;100.00;102274.78;5192202;28;20029;-83
2022/06/12 03:54:32;;;;;;;5.85;4.53;;;;;;;10.65;100.00;102251.16;5259844;28;20115;-83
2022/06/12 04:00:17;;;;;;;6.63;4.13;;;;;;;10.90;100.00;102281.66;5273257;28;20034;-82
2022/06/12 04:02:53;;;;;;;4.55;3.92;;;;;;;10.94;100.00;102287.44;5271636;28;20436;-83
2022/06/12 04:05:38;;;;;;;7.20;5.53;;;;;;;11.00;100.00;102283.81;5271744;28;20494;-81
2022/06/12 04:08:14;;;;;;;5.13;4.15;;;;;;;11.08;100.00;102283.53;5272414;28;20112;-82
2022/06/12 04:10:44;;;;;;;4.82;4.18;;;;;;;10.78;100.00;102219.41;5270950;28;20024;-83
2022/06/12 04:13:18;;;;;;;6.38;4.72;;;;;;;11.15;100.00;102251.84;5272808;28;20028;-83
2022/06/12 04:15:56;;;;;;;5.07;3.83;;;;;;;11.46;100.00;102276.03;5270942;28;20020;-83
2022/06/12 04:18:29;;;;;;;8.70;5.18;;;;;;;11.58;100.00;102264.41;5270901;28;20039;-83
2022/06/12 04:21:01;;;;;;;5.35;3.80;;;;;;;11.86;100.00;102280.09;5273540;28;20024;-83
2022/06/12 04:23:53;;;;;;;9.95;4.80;;;;;;;12.10;100.00;102279.97;5272486;28;20500;-83
2022/06/12 04:26:38;;;;;;;6.82;3.78;;;;;;;12.30;100.00;102276.94;5273349;28;20543;-83
2022/06/12 04:29:11;;;;;;;4.55;4.00;;;;;;;12.50;100.00;102282.84;5273010;28;20024;-83
2022/06/12 04:31:50;;;;;;;3.17;2.97;;;;;;;12.77;100.00;102283.22;5272653;28;20395;-82
2022/06/12 04:34:34;;;;;;;7.65;4.05;;;;;;;13.10;100.00;102274.47;5272983;28;20024;-83
2022/06/12 04:37:16;;;;;;;3.63;3.33;;;;;;;13.44;100.00;102275.50;5274392;28;20545;-83
2022/06/12 04:39:48;;;;;;;4.53;2.60;;;;;;;13.56;100.00;102252.94;5273268;28;20028;-82
2022/06/12 04:42:22;;;;;;;17.75;4.50;;;;;;;13.84;100.00;102269.22;5273928;28;20486;-81
2022/06/12 04:44:53;;;;;;;9.18;5.47;;;;;;;14.05;100.00;102273.13;5273361;28;20440;-81
2022/06/12 04:47:25;;;;;;;5.28;4.85;;;;;;;14.08;100.00;102254.44;5273758;28;20099;-81
2022/06/12 04:49:56;;;;;;;5.90;3.97;;;;;;;14.44;100.00;102287.66;5274728;28;20484;-81
2022/06/12 04:52:28;;;;;;;2.85;2.72;;;;;;;14.59;100.00;102271.59;5273703;28;20121;-81
2022/06/12 04:54:58;;;;;;;7.95;4.43;;;;;;;14.68;100.00;102278.28;5273234;28;20031;-80
2022/06/12 04:57:29;;;;;;;2.90;2.63;;;;;;;14.56;100.00;102260.41;5273911;28;20418;-80
2022/06/12 05:00:00;;;;;;;4.18;3.88;;;;;;;14.53;100.00;102259.00;5275532;28;20631;-82
2022/06/12 05:02:30;;;;;;;4.78;4.35;;;;;;;14.50;100.00;102262.19;5277428;28;20024;-82
2022/06/12 05:05:00;;;;;;;3.90;3.40;;;;;;;14.40;100.00;102248.44;5276306;28;20055;-81
2022/06/12 05:07:31;;;;;;;10.25;4.57;;;;;;;14.58;100.00;102278.09;5278549;28;20474;-81
2022/06/12 05:10:02;;;;;;;6.07;4.38;;;;;;;14.61;100.00;102277.63;5277440;28;20084;-82
2022/06/12 05:12:32;;;;;;;5.95;3.90;;;;;;;14.51;100.00;102261.13;5277767;28;20075;-82
2022/06/12 05:15:03;;;;;;;3.90;3.63;;;;;;;14.31;100.00;102237.16;5279458;28;20035;-81
2022/06/12 05:17:34;;;;;;;4.82;4.43;;;;;;;14.42;100.00;102255.31;5280056;28;20426;-81
2022/06/12 05:20:05;;;;;;;4.25;3.83;;;;;;;14.50;100.00;102271.19;5278013;28;20100;-81
2022/06/12 05:22:35;;;;;;;9.65;4.38;;;;;;;14.61;100.00;102282.22;5277176;28;20059;-81
2022/06/12 05:25:06;;;;;;;7.00;4.32;;;;;;;14.70;100.00;102278.84;5278628;28;20512;-81
2022/06/12 05:27:36;;;;;;;5.32;4.93;;;;;;;14.90;100.00;102281.03;5279248;28;20020;-81
2022/06/12 05:30:07;;;;;;;10.38;4.47;;;;;;;14.97;100.00;102250.94;5277469;28;20083;-81
2022/06/12 05:32:38;;;;;;;5.03;3.35;;;;;;;15.38;100.00;102277.59;5277553;28;20080;-80
2022/06/12 05:35:10;;;;;;;6.78;3.40;;;;;;;15.70;100.00;102276.91;5275498;28;20082;-82
2022/06/12 05:37:40;;;;;;;8.07;4.03;;;;;;;15.81;100.00;102270.50;5274050;28;20103;-81
2022/06/12 05:40:16;;;;;;;6.70;5.03;;;;;;;16.02;100.00;102283.22;5277793;28;20121;-81
2022/06/12 05:42:47;;;;;;;8.32;4.20;;;;;;;16.07;100.00;102268.84;5276686;28;20024;-80
2022/06/12 05:45:22;;;;;;;11.65;5.47;;;;;;;16.24;100.00;102283.16;5257246;28;20016;-81
2022/06/12 05:47:55;;;;;;;12.60;4.38;;;;;;;16.21;100.00;102270.88;5260714;28;20036;-81
2022/06/12 05:50:30;;;;;;;14.55;5.97;;;;;;;16.33;100.00;102280.78;5279397;28;20114;-81
2022/06/12 05:53:00;;;;;;;6.18;5.60;;;;;;;16.23;100.00;102286.97;5279324;28;20035;-83
2022/06/12 05:55:31;;;;;;;8.88;6.40;;;;;;;16.24;100.00;102285.06;5278021;28;20035;-83
2022/06/12 05:58:01;;;;;;;5.40;5.00;;;;;;;16.06;100.00;102268.00;5277919;28;20032;-80
2022/06/12 06:00:33;;;;;;;6.25;5.80;;;;;;;16.13;100.00;102289.63;5278541;28;20016;-80
2022/06/12 06:03:04;;;;;;;6.82;4.75;;;;;;;16.11;100.00;102295.31;5281938;28;20024;-80
2022/06/12 06:05:36;;;;;;;10.82;6.22;;;;;;;16.21;100.00;102270.03;5262832;28;20043;-80
2022/06/12 06:08:08;;;;;;;12.88;5.93;;;;;;;16.68;100.00;102278.38;5280060;28;20565;-80
2022/06/12 06:10:40;;;;;;;5.63;3.80;;;;;;;17.08;100.00;102293.31;5282290;28;20024;-80
2022/06/12 06:13:11;;;;;;;9.77;5.47;;;;;;;17.17;100.00;102278.09;5282557;28;20026;-80
2022/06/12 06:15:41;;;;;;;10.43;4.03;;;;;;;17.29;100.00;102265.06;5284714;28;20541;-80
2022/06/12 06:18:12;;;;;;;5.25;4.80;;;;;;;17.55;100.00;102291.38;5283716;28;20043;-80
2022/06/12 06:20:42;;;;;;;12.30;7.35;;;;;;;17.54;100.00;102287.00;5283975;28;20020;-81
2022/06/12 06:23:13;;;;;;;13.82;6.05;;;;;;;17.59;100.00;102313.53;5283391;28;20024;-79
2022/06/12 06:25:44;;;;;;;14.98;5.35;;;;;;;17.56;100.00;102281.28;5281025;28;20474;-79
2022/06/12 06:28:15;;;;;;;8.65;7.38;;;;;;;17.84;100.00;102296.41;5282504;28;20063;-79
2022/06/12 06:30:46;;;;;;;8.05;6.45;;;;;;;18.08;100.00;102288.53;5281800;28;20032;-79
2022/06/12 06:33:16;;;;;;;6.70;5.82;;;;;;;18.30;100.00;102286.34;5283331;28;20020;-79
2022/06/12 06:35:47;;;;;;;4.28;3.92;;;;;;;18.45;100.00;102294.56;5282566;28;20091;-79
2022/06/12 06:38:18;;;;;;;9.15;6.05;;;;;;;18.32;100.00;102299.75;5283357;28;20397;-79
2022/06/12 06:40:48;;;;;;;5.55;5.07;;;;;;;17.71;100.00;102250.47;5283188;28;20028;-79
2022/06/12 06:43:19;;;;;;;7.07;6.18;;;;;;;17.89;100.00;102310.09;5264787;28;20337;-79
2022/06/12 06:48:38;;;;;;;17.83;7.00;;;;;;;18.26;100.00;102268.00;5282589;28;20051;-80
2022/06/12 06:51:09;;;;;;;7.80;5.40;;;;;;;18.43;100.00;102249.44;5281250;28;20028;-81
2022/06/12 06:53:40;;;;;;;9.80;4.97;;;;;;;18.74;100.00;102303.06;5281515;28;20028;-81
2022/06/12 06:56:11;;;;;;;5.07;4.65;;;;;;;18.82;100.00;102285.22;5280966;28;20020;-80
2022/06/12 06:58:43;;;;;;;10.95;5.80;;;;;;;19.11;100.00;102304.59;5283562;28;20474;-80
2022/06/12 07:01:14;;;;;;;9.85;4.90;;;;;;;19.14;100.00;102276.66;5281695;28;20034;-80
2022/06/12 07:03:45;;;;;;;5.50;4.57;;;;;;;19.63;100.00;102303.34;5260350;28;21116;-80
2022/06/12 07:06:16;;;;;;;9.35;4.82;;;;;;;19.83;100.00;102309.53;5286005;22;20044;-62
2022/06/12 07:08:46;;;;;;;7.68;5.28;;;;;;;19.96;100.00;102310.81;5250561;28;20040;-58
2022/06/12 07:11:18;;;;;;;10.55;4.75;;;;;;;19.81;100.00;102287.06;5233927;28;20415;-59
2022/06/12 07:13:50;;;;;;;10.85;5.53;;;;;;;19.88;100.00;102304.03;5267123;28;20032;-58
2022/06/12 07:16:21;;;;;;;5.75;5.20;;;;;;;20.17;100.00;102315.09;5250416;28;20016;-58
2022/06/12 07:18:52;;;;;;;16.92;6.95;;;;;;;20.28;100.00;102293.03;5250132;28;20039;-61
2022/06/12 07:21:23;;;;;;;9.90;5.05;;;;;;;20.57;100.00;102302.16;5250184;28;20111;-57
2022/06/12 07:23:54;;;;;;;5.18;4.68;;;;;;;20.65;100.00;102307.03;5249579;28;20036;-59
2022/06/12 07:26:30;;;;;;;7.18;4.55;;;;;;;20.67;100.00;102302.06;5250143;28;20034;-59
2022/06/12 07:29:01;;;;;;;6.15;4.53;;;;;;;20.97;100.00;102306.44;5250212;28;20078;-59
2022/06/12 07:31:32;;;;;;;13.02;5.97;;;;;;;21.14;100.00;102316.97;5249996;28;20103;-60
2022/06/12 07:34:02;;;;;;;11.68;6.43;;;;;;;21.26;100.00;102317.41;5250031;28;20028;-60
2022/06/12 07:36:35;;;;;;;7.50;4.85;;;;;;;21.41;100.00;102316.41;5249990;28;20094;-60
2022/06/12 07:39:09;;;;;;;7.22;4.28;;;;;;;21.54;100.00;102313.75;5249903;28;20081;-58
2022/06/12 07:41:40;;;;;;;13.38;5.95;;;;;;;21.54;100.00;102301.94;5249950;28;20035;-60
2022/06/12 07:44:12;;;;;;;8.13;5.40;;;;;;;21.73;100.00;102315.72;5249836;28;20027;-59
2022/06/12 07:46:43;;;;;;;8.93;6.15;;;;;;;21.82;100.00;102303.75;5249661;28;20031;-59
2022/06/12 07:49:14;;;;;;;12.98;6.65;;;;;;;22.19;100.00;102313.97;5268023;28;20020;-59
2022/06/12 07:51:45;;;;;;;9.63;6.13;;;;;;;22.49;100.00;102314.59;5267976;28;20030;-59
2022/06/12 07:54:17;;;;;;;9.20;4.32;;;;;;;22.58;100.00;102312.75;5249787;28;20491;-59
2022/06/12 07:56:49;;;;;;;4.03;3.72;;;;;;;22.89;100.00;102305.63;5267868;28;20032;-61
2022/06/12 07:59:21;;;;;;;4.15;3.55;;;;;;;23.02;100.00;102301.25;5249758;28;20024;-60
2022/06/12 08:01:53;;;;;;;5.97;4.43;;;;;;;23.37;100.00;102308.00;5250071;28;20028;-58
2022/06/12 08:04:24;;;;;;;9.35;4.93;;;;;;;23.42;100.00;102304.28;5249561;28;20024;-61
2022/06/12 08:06:54;;;;;;;8.48;3.38;;;;;;;22.96;100.00;102298.91;5267620;28;20032;-59
2022/06/12 08:09:25;;;;;;;10.45;5.55;;;;;;;22.54;100.00;102289.69;5266360;28;20028;-59
2022/06/12 08:11:56;;;;;;;9.02;4.28;;;;;;;22.68;100.00;102298.81;5266302;28;20132;-59
2022/06/12 08:14:26;;;;;;;6.57;3.60;;;;;;;22.77;100.00;102298.94;5266155;28;20032;-59
2022/06/12 08:16:57;;;;;;;6.43;3.97;;;;;;;22.51;100.00;102304.09;5267693;28;20020;-61
2022/06/12 08:22:17;;;;;;;7.47;4.03;;;;;;;21.99;100.00;102300.47;5268378;28;20043;-59
2022/06/12 08:24:56;;;;;;;8.90;5.10;;;;;;;22.57;100.00;102300.13;5249415;28;20103;-60
2022/06/12 08:27:27;;;;;;;4.97;4.47;;;;;;;23.05;100.00;102300.66;5249545;28;20492;-60
2022/06/12 08:29:57;;;;;;;6.97;3.83;;;;;;;23.35;100.00;102287.38;5249398;28;20111;-60
2022/06/12 08:32:28;;;;;;;7.32;3.75;;;;;;;23.58;100.00;102286.34;5249155;28;20373;-60
2022/06/12 08:35:04;;;;;;;8.90;4.38;;;;;;;23.37;100.00;102290.63;5269215;28;20020;-61
2022/06/12 08:37:37;;;;;;;8.18;4.13;;;;;;;23.27;100.00;102280.63;5253433;28;20085;-62
2022/06/12 08:40:25;;;;;;;8.10;4.57;;;;;;;23.33;100.00;102284.91;5271713;28;20480;-60
2022/06/12 08:43:22;;;;;;;7.97;3.63;;;;;;;23.31;100.00;102287.16;5253202;28;20059;-62
2022/06/12 08:45:58;;;;;;;6.70;3.45;;;;;;;23.62;100.00;102286.53;5252885;28;20031;-61
2022/06/12 08:48:55;;;;;;;4.93;4.07;;;;;;;23.46;95.38;102288.78;5271702;28;20110;-62
2022/06/12 08:51:50;;;;;;;4.32;3.72;;;;;;;23.66;96.81;102285.63;5271463;28;20103;-61
2022/06/12 08:54:30;;;;;;;5.93;2.92;;;;;;;23.30;100.00;102284.72;5253175;28;20023;-61
2022/06/12 08:57:07;;;;;;;14.48;4.85;;;;;;;23.65;100.00;102274.91;5271272;28;20099;-62
2022/06/12 08:59:55;;;;;;;7.47;3.78;;;;;;;24.07;100.00;102271.69;5271291;28;20028;-61
2022/06/12 09:02:31;;;;;;;7.40;3.40;;;;;;;24.10;95.23;102271.06;5271342;28;20069;-61
2022/06/12 09:05:06;;;;;;;6.32;3.90;;;;;;;24.03;93.41;102273.44;5252780;28;20467;-60
2022/06/12 09:07:51;;;;;;;10.13;4.07;;;;;;;23.73;95.23;102271.38;5253078;28;20027;-61
2022/06/12 09:10:39;;;;;;;4.53;3.45;;;;;;;23.41;91.09;102264.88;5253045;28;20479;-60
2022/06/12 09:13:37;;;;;;;4.10;3.25;;;;;;;23.60;94.78;102266.72;5253340;28;20051;-60
2022/06/12 09:16:25;;;;;;;3.75;3.08;;;;;;;24.11;88.67;102272.69;5252668;28;20020;-61
2022/06/12 09:19:00;;;;;;;4.10;2.60;;;;;;;24.44;91.28;102259.47;5269763;28;20028;-60
2022/06/12 09:22:02;;;;;;;3.05;2.90;;;;;;;24.62;85.14;102265.06;5270962;28;20472;-60
2022/06/12 09:24:36;;;;;;;7.90;4.25;;;;;;;24.72;85.56;102265.63;5252429;28;20095;-61
2022/06/12 09:28:00;;;;;;;4.38;3.33;;;;;;;24.81;85.59;102265.66;5269543;28;20392;-62
2022/06/12 09:30:54;;;;;;;4.15;3.75;;;;;;;25.00;83.42;102259.91;5148700;28;20033;-61
2022/06/12 09:33:48;;;;;;;5.00;3.08;;;;;;;24.74;85.39;102257.84;5251031;28;20114;-61
2022/06/12 09:36:46;;;;;;;3.78;3.13;;;;;;;24.98;88.44;102263.00;5269393;28;20044;-61
2022/06/12 09:39:19;;;;;;;7.18;2.88;;;;;;;25.63;82.06;102258.59;5269357;28;20407;-60
2022/06/12 09:42:03;;;;;;;5.85;4.95;;;;;;;24.86;81.46;102249.72;5269390;28;20042;-61
2022/06/12 09:44:52;;;;;;;10.15;4.72;;;;;;;24.37;85.27;102261.84;5268899;28;20035;-58
2022/06/12 09:48:00;;;;;;;19.27;6.15;;;;;;;24.08;84.40;102265.03;5269269;28;20115;-61
2022/06/12 09:50:46;;;;;;;2.78;2.63;;;;;;;23.80;88.10;102260.75;5242352;28;20036;-60
2022/06/12 09:53:45;;;;;;;4.32;3.22;;;;;;;23.79;84.17;102257.16;5269079;28;20457;-60
2022/06/12 09:56:33;;;;;;;4.30;2.55;;;;;;;23.52;83.28;102249.78;5269196;28;20027;-58
2022/06/12 09:59:13;;;;;;;9.73;3.80;;;;;;;23.10;86.29;102267.44;5252154;28;20028;-59
2022/06/12 10:01:47;;;;;;;3.28;2.88;;;;;;;23.22;90.42;102262.25;5251900;28;20070;-62
2022/06/12 10:04:45;;;;;;;4.85;2.72;;;;;;;23.65;88.51;102237.09;5251850;28;20093;-59
2022/06/12 10:07:22;;;;;;;4.32;3.70;;;;;;;24.07;89.87;102249.59;5252234;28;20031;-65
2022/06/12 10:10:23;;;;;;;5.78;4.53;;;;;;;24.38;88.03;102248.84;5268873;28;20063;-62
2022/06/12 10:13:00;;;;;;;4.93;2.97;;;;;;;24.10;81.89;102235.16;5250909;28;20028;-60
2022/06/12 10:15:34;;;;;;;5.95;2.92;;;;;;;23.77;82.65;102251.13;5251754;28;20415;-59
2022/06/12 10:18:27;;;;;;;4.68;4.38;;;;;;;23.64;83.75;102251.19;5252128;28;20028;-60
2022/06/12 10:21:06;;;;;;;7.45;4.18;;;;;;;23.21;83.12;102249.59;5268855;28;20441;-60
2022/06/12 10:23:37;;;;;;;9.80;4.22;;;;;;;23.13;90.25;102247.56;5251954;28;20059;-60
2022/06/12 10:26:18;;;;;;;6.72;3.35;;;;;;;23.71;95.46;102251.56;5251814;28;20039;-60
2022/06/12 10:29:01;;;;;;;4.47;2.95;;;;;;;23.78;86.19;102243.69;5251451;28;20020;-61
2022/06/12 10:31:34;;;;;;;3.10;2.90;;;;;;;23.65;85.06;102241.81;5251429;28;20484;-61
2022/06/12 10:34:16;;;;;;;3.15;3.00;;;;;;;23.97;89.86;102243.50;5251395;28;20038;-59
2022/06/12 10:36:47;;;;;;;6.53;4.65;;;;;;;24.57;89.40;102246.69;5251609;28;20059;-60
2022/06/12 10:39:21;;;;;;;9.43;3.58;;;;;;;24.97;86.80;102243.97;5251244;28;20023;-61
2022/06/12 10:41:56;;;;;;;2.92;2.72;;;;;;;24.77;83.72;102243.38;5268068;28;20178;-61
2022/06/12 10:44:38;;;;;;;2.83;2.63;;;;;;;24.34;81.51;102242.31;5251301;28;20376;-60
2022/06/12 10:47:14;;;;;;;8.07;3.03;;;;;;;23.34;82.66;102247.97;5268148;28;20486;-60
2022/06/12 10:49:45;;;;;;;3.38;3.03;;;;;;;22.68;85.30;102241.00;5268112;28;20027;-60
2022/06/12 10:52:21;;;;;;;9.30;4.32;;;;;;;22.47;87.65;102246.06;5250998;28;20028;-62
2022/06/12 10:54:52;;;;;;;8.57;4.90;;;;;;;22.48;88.15;102253.22;5250963;28;20066;-61
2022/06/12 10:58:05;;;;;;;8.75;4.20;;;;;;;22.32;88.84;102248.25;5250630;28;20396;-61
2022/06/12 11:00:42;;;;;;;7.55;5.22;;;;;;;22.33;83.96;102247.13;5269515;28;20020;-60
2022/06/12 11:03:35;;;;;;;6.10;3.20;;;;;;;22.58;89.40;102244.75;5251221;28;20471;-59
2022/06/12 11:06:43;;;;;;;3.10;2.83;;;;;;;23.74;91.21;102237.16;5268056;28;20028;-61
2022/06/12 11:09:23;;;;;;;5.07;4.03;;;;;;;24.14;85.25;102240.88;5201117;28;20131;-61
2022/06/12 11:12:15;;;;;;;3.28;2.90;;;;;;;24.45;86.66;102235.41;5269551;28;20024;-61
2022/06/12 11:15:07;;;;;;;2.90;2.50;;;;;;;24.46;84.30;102223.25;5267495;28;20123;-60
2022/06/12 11:17:54;;;;;;;2.35;2.25;;;;;;;25.02;88.70;102224.47;5267640;28;20126;-59
2022/06/12 11:20:54;;;;;;;3.13;2.60;;;;;;;25.50;84.48;102229.94;5267842;28;20506;-61
2022/06/12 11:23:53;;;;;;;12.75;5.18;;;;;;;25.78;79.66;102211.91;5229096;28;20396;-61
2022/06/12 11:26:36;;;;;;;5.05;3.55;;;;;;;26.01;80.00;102214.47;5240592;28;20113;-61
2022/06/12 11:29:10;;;;;;;2.67;2.47;;;;;;;26.39;77.57;102209.88;5267800;28;20066;-61
2022/06/12 11:32:00;;;;;;;5.97;2.45;;;;;;;25.97;73.58;102208.81;5267625;28;20034;-61
2022/06/12 11:35:12;;;;;;;3.53;3.22;;;;;;;26.11;79.84;102198.34;5267450;28;20028;-60
2022/06/12 11:37:57;;;;;;;2.88;2.20;;;;;;;26.58;78.23;102198.38;5268117;28;20436;-61
2022/06/12 11:40:53;;;;;;;9.35;4.07;;;;;;;26.05;75.02;102201.59;5267778;28;20102;-60
2022/06/12 11:43:35;;;;;;;2.47;2.38;;;;;;;25.93;76.34;102187.63;5267305;28;20051;-60
2022/06/12 11:46:20;;;;;;;8.80;3.70;;;;;;;26.46;71.96;102189.97;5250245;28;20396;-61
2022/06/12 11:49:00;;;;;;;4.05;3.63;;;;;;;26.62;71.41;102190.22;5267281;28;20027;-60
2022/06/12 11:51:36;;;;;;;3.00;2.60;;;;;;;26.49;65.03;102183.75;5267395;28;20020;-61
2022/06/12 11:54:44;;;;;;;3.70;3.35;;;;;;;26.11;68.36;102184.50;5268146;28;20032;-60
2022/06/12 11:57:25;;;;;;;5.75;3.80;;;;;;;26.13;71.54;102179.44;5267000;28;20069;-60
2022/06/12 12:00:13;;;;;;;12.75;5.13;;;;;;;25.91;72.23;102187.97;5267169;28;20122;-61
2022/06/12 12:03:01;;;;;;;3.05;2.85;;;;;;;25.38;72.88;102185.53;5266757;28;20024;-60
2022/06/12 12:05:49;;;;;;;2.33;2.22;;;;;;;25.12;75.21;102179.97;5266568;28;20028;-60
2022/06/12 12:08:25;;;;;;;5.53;2.70;;;;;;;25.31;72.46;102183.22;5268516;28;20032;-61
2022/06/12 12:11:07;;;;;;;6.20;4.32;;;;;;;25.41;69.09;102173.81;5273901;28;20067;-61
2022/06/12 12:13:43;;;;;;;5.72;3.22;;;;;;;25.23;69.80;102173.78;5274340;28;20027;-60
2022/06/12 12:16:40;;;;;;;3.95;3.65;;;;;;;25.74;70.41;102163.06;5257377;28;20184;-59
2022/06/12 12:19:35;;;;;;;2.72;2.50;;;;;;;26.14;72.25;102167.22;5257065;28;20053;-62
2022/06/12 12:22:12;;;;;;;3.88;3.53;;;;;;;26.49;67.78;102158.84;5275620;28;20027;-62
2022/06/12 12:24:49;;;;;;;2.95;2.53;;;;;;;26.77;65.66;102145.31;5256457;28;20036;-60
2022/06/12 12:27:34;;;;;;;6.13;2.72;;;;;;;27.18;66.83;102153.72;5256725;28;20043;-61
2022/06/12 12:30:30;;;;;;;4.82;3.35;;;;;;;27.68;64.94;102152.03;5256958;28;20042;-60
2022/06/12 12:33:03;;;;;;;5.90;3.47;;;;;;;27.45;65.80;102146.81;5257043;28;20023;-60
2022/06/12 12:41:26;;;;;;;7.60;3.65;;;;;;;26.76;68.15;102150.06;5275760;28;20086;-60
2022/06/12 12:43:59;;;;;;;7.88;3.65;;;;;;;26.94;67.06;102153.53;5256526;28;20538;-60
2022/06/12 12:46:49;;;;;;;3.10;2.90;;;;;;;26.03;64.57;102149.34;5256885;28;20028;-60
2022/06/12 12:49:23;;;;;;;2.55;2.08;;;;;;;25.29;65.70;102141.25;5256753;28;20024;-61
2022/06/12 12:52:08;;;;;;;4.60;2.92;;;;;;;25.61;70.29;102142.72;5273445;28;20031;-59
2022/06/12 12:54:58;;;;;;;5.40;4.20;;;;;;;26.49;70.46;102147.75;5256521;28;20046;-61
2022/06/12 12:57:41;;;;;;;5.85;2.65;;;;;;;26.19;64.34;102144.91;5256916;28;20073;-61
2022/06/12 13:00:18;;;;;;;4.53;3.63;;;;;;;25.93;66.11;102141.41;5256626;28;20418;-58